sensor_id;sensor_type;location;lat;lon;timestamp;P1;durP1;ratioP1;P2;durP2;ratioP2
31348;SDS011;17976;48.480;11.946;2022-08-11T08:31:24;3.72;;;2.00;;
31348;SDS011;17976;48.480;11.946;2022-08-11T08:33:50;3.53;;;2.00;;
31348;SDS011;17976;48.480;11.946;2022-08-11T08:36:16;2.83;;;1.80;;
31348;SDS011;17976;48.480;11.946;2022-08-11T08:38:48;6.60;;;1.95;;
31348;SDS011;17976;48.480;11.946;2022-08-11T08:41:16;2.95;;;2.05;;
31348;SDS011;17976;48.480;11.946;2022-08-11T08:43:44;5.70;;;2.88;;
31348;SDS011;17976;48.480;11.946;2022-08-11T08:46:13;2.25;;;1.73;;
31348;SDS011;17976;48.480;11.946;2022-08-11T08:48:39;3.35;;;1.77;;
31348;SDS011;17976;48.480;11.946;2022-08-11T08:51:09;8.18;;;1.88;;
31348;SDS011;17976;48.480;11.946;2022-08-11T08:53:55;2.97;;;1.90;;
31348;SDS011;17976;48.480;11.946;2022-08-11T08:56:26;5.22;;;1.98;;
31348;SDS011;17976;48.480;11.946;2022-08-11T08:58:53;3.15;;;2.05;;
31348;SDS011;17976;48.480;11.946;2022-08-11T09:01:19;5.45;;;2.70;;
31348;SDS011;17976;48.480;11.946;2022-08-11T09:03:46;6.90;;;2.05;;
31348;SDS011;17976;48.480;11.946;2022-08-11T09:06:12;4.65;;;1.85;;
31348;SDS011;17976;48.480;11.946;2022-08-11T09:08:40;3.42;;;2.00;;
31348;SDS011;17976;48.480;11.946;2022-08-11T09:11:07;6.28;;;2.03;;
31348;SDS011;17976;48.480;11.946;2022-08-11T09:13:53;6.35;;;2.45;;
31348;SDS011;17976;48.480;11.946;2022-08-11T09:16:20;3.75;;;1.90;;
31348;SDS011;17976;48.480;11.946;2022-08-11T09:18:47;2.20;;;1.70;;
31348;SDS011;17976;48.480;11.946;2022-08-11T09:21:13;5.88;;;1.85;;
31348;SDS011;17976;48.480;11.946;2022-08-11T09:23:40;4.95;;;1.55;;
31348;SDS011;17976;48.480;11.946;2022-08-11T09:26:36;1.45;;;1.35;;
31348;SDS011;17976;48.480;11.946;2022-08-11T09:29:12;2.47;;;1.65;;
31348;SDS011;17976;48.480;11.946;2022-08-11T09:31:39;4.30;;;2.05;;
31348;SDS011;17976;48.480;11.946;2022-08-11T09:34:06;7.35;;;3.63;;
31348;SDS011;17976;48.480;11.946;2022-08-11T09:36:32;5.57;;;1.60;;
31348;SDS011;17976;48.480;11.946;2022-08-11T09:39:17;5.00;;;1.73;;
31348;SDS011;17976;48.480;11.946;2022-08-11T09:42:02;4.90;;;2.20;;
31348;SDS011;17976;48.480;11.946;2022-08-11T09:44:29;4.22;;;1.85;;
31348;SDS011;17976;48.480;11.946;2022-08-11T09:47:19;6.88;;;1.95;;
31348;SDS011;17976;48.480;11.946;2022-08-11T09:49:46;3.53;;;1.90;;
31348;SDS011;17976;48.480;11.946;2022-08-11T09:52:13;3.13;;;1.80;;
31348;SDS011;17976;48.480;11.946;2022-08-11T09:54:42;5.60;;;3.10;;
31348;SDS011;17976;48.480;11.946;2022-08-11T09:57:08;6.05;;;2.03;;
31348;SDS011;17976;48.480;11.946;2022-08-11T09:59:53;4.57;;;1.83;;
31348;SDS011;17976;48.480;11.946;2022-08-11T10:02:22;1.92;;;1.52;;
31348;SDS011;17976;48.480;11.946;2022-08-11T10:04:50;4.07;;;2.05;;
31348;SDS011;17976;48.480;11.946;2022-08-11T10:07:18;2.22;;;1.60;;
31348;SDS011;17976;48.480;11.946;2022-08-11T10:12:25;1.85;;;1.63;;
31348;SDS011;17976;48.480;11.946;2022-08-11T10:14:52;6.45;;;1.63;;
31348;SDS011;17976;48.480;11.946;2022-08-11T10:17:48;4.55;;;1.75;;
31348;SDS011;17976;48.480;11.946;2022-08-11T10:20:35;2.72;;;1.60;;
31348;SDS011;17976;48.480;11.946;2022-08-11T10:23:02;15.95;;;2.22;;
31348;SDS011;17976;48.480;11.946;2022-08-11T10:25:46;3.13;;;1.63;;
31348;SDS011;17976;48.480;11.946;2022-08-11T10:28:33;4.22;;;1.23;;
31348;SDS011;17976;48.480;11.946;2022-08-11T10:30:59;2.42;;;1.42;;
31348;SDS011;17976;48.480;11.946;2022-08-11T10:33:45;4.90;;;1.58;;
31348;SDS011;17976;48.480;11.946;2022-08-11T10:36:24;2.42;;;1.30;;
31348;SDS011;17976;48.480;11.946;2022-08-11T10:38:51;4.38;;;2.63;;
31348;SDS011;17976;48.480;11.946;2022-08-11T10:41:18;1.80;;;1.50;;
31348;SDS011;17976;48.480;11.946;2022-08-11T10:44:03;2.58;;;1.63;;
31348;SDS011;17976;48.480;11.946;2022-08-11T10:46:30;2.13;;;1.38;;
31348;SDS011;17976;48.480;11.946;2022-08-11T10:49:15;3.47;;;1.63;;
31348;SDS011;17976;48.480;11.946;2022-08-11T10:51:42;5.35;;;1.48;;
31348;SDS011;17976;48.480;11.946;2022-08-11T10:54:27;3.03;;;1.40;;
31348;SDS011;17976;48.480;11.946;2022-08-11T10:57:13;6.20;;;1.48;;
31348;SDS011;17976;48.480;11.946;2022-08-11T10:59:58;2.80;;;1.30;;
31348;SDS011;17976;48.480;11.946;2022-08-11T11:02:24;5.28;;;1.52;;
31348;SDS011;17976;48.480;11.946;2022-08-11T11:04:56;2.75;;;1.83;;
31348;SDS011;17976;48.480;11.946;2022-08-11T11:07:25;5.03;;;1.73;;
31348;SDS011;17976;48.480;11.946;2022-08-11T11:10:00;1.60;;;1.40;;
31348;SDS011;17976;48.480;11.946;2022-08-11T11:15:11;5.35;;;1.65;;
31348;SDS011;17976;48.480;11.946;2022-08-11T11:18:02;1.63;;;1.27;;
31348;SDS011;17976;48.480;11.946;2022-08-11T11:22:59;3.60;;;1.50;;
31348;SDS011;17976;48.480;11.946;2022-08-11T11:30:32;11.23;;;1.40;;
31348;SDS011;17976;48.480;11.946;2022-08-11T11:33:07;4.55;;;1.73;;
31348;SDS011;17976;48.480;11.946;2022-08-11T11:38:08;2.38;;;1.42;;
31348;SDS011;17976;48.480;11.946;2022-08-11T11:40:35;2.88;;;1.23;;
31348;SDS011;17976;48.480;11.946;2022-08-11T11:43:02;1.75;;;1.20;;
31348;SDS011;17976;48.480;11.946;2022-08-11T11:45:29;3.42;;;1.73;;
31348;SDS011;17976;48.480;11.946;2022-08-11T11:47:56;2.25;;;1.20;;
31348;SDS011;17976;48.480;11.946;2022-08-11T11:50:30;5.95;;;1.10;;
31348;SDS011;17976;48.480;11.946;2022-08-11T11:52:59;2.47;;;1.58;;
31348;SDS011;17976;48.480;11.946;2022-08-11T11:55:25;1.90;;;1.10;;
31348;SDS011;17976;48.480;11.946;2022-08-11T11:57:52;3.05;;;1.30;;
31348;SDS011;17976;48.480;11.946;2022-08-11T12:00:38;1.75;;;1.23;;
31348;SDS011;17976;48.480;11.946;2022-08-11T12:03:23;3.08;;;1.52;;
31348;SDS011;17976;48.480;11.946;2022-08-11T12:05:50;2.90;;;1.23;;
31348;SDS011;17976;48.480;11.946;2022-08-11T12:08:17;2.38;;;1.10;;
31348;SDS011;17976;48.480;11.946;2022-08-11T12:13:10;2.40;;;1.30;;
31348;SDS011;17976;48.480;11.946;2022-08-11T12:15:55;1.65;;;1.17;;
31348;SDS011;17976;48.480;11.946;2022-08-11T12:18:21;2.22;;;1.13;;
31348;SDS011;17976;48.480;11.946;2022-08-11T12:20:48;2.13;;;1.10;;
31348;SDS011;17976;48.480;11.946;2022-08-11T12:23:14;3.25;;;1.30;;
31348;SDS011;17976;48.480;11.946;2022-08-11T12:25:59;2.00;;;1.25;;
31348;SDS011;17976;48.480;11.946;2022-08-11T12:28:44;1.55;;;1.15;;
31348;SDS011;17976;48.480;11.946;2022-08-11T12:31:11;4.25;;;1.30;;
31348;SDS011;17976;48.480;11.946;2022-08-11T12:33:38;1.50;;;1.20;;
31348;SDS011;17976;48.480;11.946;2022-08-11T12:36:05;5.47;;;1.30;;
31348;SDS011;17976;48.480;11.946;2022-08-11T12:38:33;3.03;;;1.42;;
31348;SDS011;17976;48.480;11.946;2022-08-11T12:40:59;3.20;;;1.55;;
31348;SDS011;17976;48.480;11.946;2022-08-11T12:43:45;5.63;;;1.17;;
31348;SDS011;17976;48.480;11.946;2022-08-11T12:46:32;1.52;;;1.10;;
31348;SDS011;17976;48.480;11.946;2022-08-11T12:48:59;5.13;;;1.45;;
31348;SDS011;17976;48.480;11.946;2022-08-11T12:51:50;8.30;;;1.10;;
31348;SDS011;17976;48.480;11.946;2022-08-11T12:54:24;1.80;;;1.42;;
31348;SDS011;17976;48.480;11.946;2022-08-11T12:56:54;1.35;;;0.90;;
31348;SDS011;17976;48.480;11.946;2022-08-11T12:59:41;2.47;;;1.30;;
31348;SDS011;17976;48.480;11.946;2022-08-11T13:02:26;1.88;;;0.85;;
31348;SDS011;17976;48.480;11.946;2022-08-11T13:05:11;1.90;;;0.95;;
31348;SDS011;17976;48.480;11.946;2022-08-11T13:07:37;1.55;;;1.08;;
31348;SDS011;17976;48.480;11.946;2022-08-11T13:10:06;6.30;;;1.00;;
31348;SDS011;17976;48.480;11.946;2022-08-11T13:12:33;4.40;;;1.25;;
31348;SDS011;17976;48.480;11.946;2022-08-11T13:15:16;2.10;;;1.20;;
31348;SDS011;17976;48.480;11.946;2022-08-11T13:17:42;1.75;;;1.30;;
31348;SDS011;17976;48.480;11.946;2022-08-11T13:20:09;3.72;;;1.30;;
31348;SDS011;17976;48.480;11.946;2022-08-11T13:22:36;2.10;;;1.30;;
31348;SDS011;17976;48.480;11.946;2022-08-11T13:25:04;1.77;;;1.08;;
31348;SDS011;17976;48.480;11.946;2022-08-11T13:27:30;6.88;;;1.13;;
31348;SDS011;17976;48.480;11.946;2022-08-11T13:29:57;2.08;;;1.20;;
31348;SDS011;17976;48.480;11.946;2022-08-11T13:32:43;1.95;;;1.08;;
31348;SDS011;17976;48.480;11.946;2022-08-11T13:35:10;1.70;;;1.00;;
31348;SDS011;17976;48.480;11.946;2022-08-11T13:37:39;1.92;;;1.10;;
31348;SDS011;17976;48.480;11.946;2022-08-11T13:40:05;4.28;;;1.10;;
31348;SDS011;17976;48.480;11.946;2022-08-11T13:42:31;3.25;;;1.00;;
31348;SDS011;17976;48.480;11.946;2022-08-11T13:44:57;2.90;;;1.00;;
31348;SDS011;17976;48.480;11.946;2022-08-11T13:47:24;1.33;;;0.90;;
31348;SDS011;17976;48.480;11.946;2022-08-11T13:49:50;1.05;;;0.95;;
31348;SDS011;17976;48.480;11.946;2022-08-11T13:52:17;4.82;;;1.00;;
31348;SDS011;17976;48.480;11.946;2022-08-11T13:54:45;3.50;;;0.90;;
31348;SDS011;17976;48.480;11.946;2022-08-11T13:57:12;2.75;;;1.05;;
31348;SDS011;17976;48.480;11.946;2022-08-11T13:59:40;3.08;;;1.00;;
31348;SDS011;17976;48.480;11.946;2022-08-11T14:02:07;2.50;;;0.95;;
31348;SDS011;17976;48.480;11.946;2022-08-11T14:07:04;1.15;;;1.00;;
31348;SDS011;17976;48.480;11.946;2022-08-11T14:09:31;3.75;;;1.00;;
31348;SDS011;17976;48.480;11.946;2022-08-11T14:12:00;2.17;;;1.20;;
31348;SDS011;17976;48.480;11.946;2022-08-11T14:14:46;5.07;;;0.90;;
31348;SDS011;17976;48.480;11.946;2022-08-11T14:17:13;2.40;;;1.00;;
31348;SDS011;17976;48.480;11.946;2022-08-11T14:19:41;3.80;;;0.98;;
31348;SDS011;17976;48.480;11.946;2022-08-11T14:22:08;1.23;;;0.82;;
31348;SDS011;17976;48.480;11.946;2022-08-11T14:24:37;4.05;;;0.80;;
31348;SDS011;17976;48.480;11.946;2022-08-11T14:27:05;3.17;;;1.17;;
31348;SDS011;17976;48.480;11.946;2022-08-11T14:29:32;3.97;;;0.80;;
31348;SDS011;17976;48.480;11.946;2022-08-11T14:32:03;1.02;;;0.80;;
31348;SDS011;17976;48.480;11.946;2022-08-11T14:34:30;1.10;;;0.85;;
31348;SDS011;17976;48.480;11.946;2022-08-11T14:36:59;4.20;;;1.00;;
31348;SDS011;17976;48.480;11.946;2022-08-11T14:39:27;3.05;;;1.10;;
31348;SDS011;17976;48.480;11.946;2022-08-11T14:42:01;2.38;;;0.70;;
31348;SDS011;17976;48.480;11.946;2022-08-11T14:44:46;1.65;;;0.65;;
31348;SDS011;17976;48.480;11.946;2022-08-11T14:47:52;6.90;;;1.10;;
31348;SDS011;17976;48.480;11.946;2022-08-11T14:50:22;0.88;;;0.70;;
31348;SDS011;17976;48.480;11.946;2022-08-11T14:52:50;5.05;;;0.90;;
31348;SDS011;17976;48.480;11.946;2022-08-11T14:55:18;1.20;;;1.02;;
31348;SDS011;17976;48.480;11.946;2022-08-11T14:58:03;2.72;;;0.82;;
31348;SDS011;17976;48.480;11.946;2022-08-11T15:00:30;2.72;;;0.88;;
31348;SDS011;17976;48.480;11.946;2022-08-11T15:02:58;5.72;;;1.10;;
31348;SDS011;17976;48.480;11.946;2022-08-11T15:08:03;4.90;;;1.00;;
31348;SDS011;17976;48.480;11.946;2022-08-11T15:10:30;4.00;;;0.88;;
31348;SDS011;17976;48.480;11.946;2022-08-11T15:12:56;2.15;;;0.98;;
31348;SDS011;17976;48.480;11.946;2022-08-11T15:15:23;4.25;;;0.82;;
31348;SDS011;17976;48.480;11.946;2022-08-11T15:18:10;2.83;;;0.93;;
31348;SDS011;17976;48.480;11.946;2022-08-11T15:20:37;2.58;;;0.85;;
31348;SDS011;17976;48.480;11.946;2022-08-11T15:23:22;2.00;;;0.77;;
31348;SDS011;17976;48.480;11.946;2022-08-11T15:26:17;2.08;;;1.05;;
31348;SDS011;17976;48.480;11.946;2022-08-11T15:28:47;2.88;;;0.95;;
31348;SDS011;17976;48.480;11.946;2022-08-11T15:31:32;1.33;;;0.90;;
31348;SDS011;17976;48.480;11.946;2022-08-11T15:34:18;1.02;;;0.80;;
31348;SDS011;17976;48.480;11.946;2022-08-11T15:37:06;2.30;;;1.20;;
31348;SDS011;17976;48.480;11.946;2022-08-11T15:40:00;2.50;;;1.05;;
31348;SDS011;17976;48.480;11.946;2022-08-11T15:42:48;1.38;;;1.00;;
31348;SDS011;17976;48.480;11.946;2022-08-11T15:45:35;4.65;;;1.10;;
31348;SDS011;17976;48.480;11.946;2022-08-11T15:50:53;2.55;;;0.80;;
31348;SDS011;17976;48.480;11.946;2022-08-11T15:53:31;1.70;;;1.00;;
31348;SDS011;17976;48.480;11.946;2022-08-11T15:55:57;1.80;;;0.90;;
31348;SDS011;17976;48.480;11.946;2022-08-11T15:58:25;2.72;;;0.80;;
31348;SDS011;17976;48.480;11.946;2022-08-11T16:01:12;3.42;;;1.20;;
31348;SDS011;17976;48.480;11.946;2022-08-11T16:04:00;1.10;;;1.00;;
31348;SDS011;17976;48.480;11.946;2022-08-11T16:06:50;4.10;;;0.82;;
31348;SDS011;17976;48.480;11.946;2022-08-11T16:09:30;3.53;;;0.98;;
31348;SDS011;17976;48.480;11.946;2022-08-11T16:11:58;1.67;;;0.80;;
31348;SDS011;17976;48.480;11.946;2022-08-11T16:14:25;4.05;;;1.10;;
31348;SDS011;17976;48.480;11.946;2022-08-11T16:17:10;3.25;;;0.90;;
31348;SDS011;17976;48.480;11.946;2022-08-11T16:19:36;2.35;;;0.70;;
31348;SDS011;17976;48.480;11.946;2022-08-11T16:22:05;1.52;;;1.05;;
31348;SDS011;17976;48.480;11.946;2022-08-11T16:24:34;1.83;;;0.80;;
31348;SDS011;17976;48.480;11.946;2022-08-11T16:27:00;1.08;;;0.82;;
31348;SDS011;17976;48.480;11.946;2022-08-11T16:29:28;1.05;;;0.95;;
31348;SDS011;17976;48.480;11.946;2022-08-11T16:31:56;3.03;;;0.98;;
31348;SDS011;17976;48.480;11.946;2022-08-11T16:34:42;3.88;;;1.48;;
31348;SDS011;17976;48.480;11.946;2022-08-11T16:37:29;2.30;;;1.10;;
31348;SDS011;17976;48.480;11.946;2022-08-11T16:40:14;1.00;;;0.80;;
31348;SDS011;17976;48.480;11.946;2022-08-11T16:42:42;1.88;;;1.00;;
31348;SDS011;17976;48.480;11.946;2022-08-11T16:45:29;2.97;;;0.90;;
31348;SDS011;17976;48.480;11.946;2022-08-11T16:48:14;1.85;;;0.90;;
31348;SDS011;17976;48.480;11.946;2022-08-11T16:50:40;3.05;;;0.80;;
31348;SDS011;17976;48.480;11.946;2022-08-11T16:53:07;1.45;;;0.90;;
31348;SDS011;17976;48.480;11.946;2022-08-11T16:55:33;2.50;;;0.88;;
31348;SDS011;17976;48.480;11.946;2022-08-11T16:57:59;1.65;;;1.05;;
31348;SDS011;17976;48.480;11.946;2022-08-11T17:00:44;7.65;;;1.15;;
31348;SDS011;17976;48.480;11.946;2022-08-11T17:03:11;2.30;;;1.08;;
31348;SDS011;17976;48.480;11.946;2022-08-11T17:05:56;1.27;;;0.93;;
31348;SDS011;17976;48.480;11.946;2022-08-11T17:08:43;3.03;;;0.95;;
31348;SDS011;17976;48.480;11.946;2022-08-11T17:11:30;3.83;;;0.93;;
31348;SDS011;17976;48.480;11.946;2022-08-11T17:14:23;2.17;;;0.77;;
31348;SDS011;17976;48.480;11.946;2022-08-11T17:19:25;1.40;;;1.20;;
31348;SDS011;17976;48.480;11.946;2022-08-11T17:21:53;2.67;;;0.95;;
31348;SDS011;17976;48.480;11.946;2022-08-11T17:24:41;2.63;;;1.23;;
31348;SDS011;17976;48.480;11.946;2022-08-11T17:27:07;5.72;;;1.02;;
31348;SDS011;17976;48.480;11.946;2022-08-11T17:29:36;2.25;;;1.10;;
31348;SDS011;17976;48.480;11.946;2022-08-11T17:32:07;1.05;;;0.90;;
31348;SDS011;17976;48.480;11.946;2022-08-11T17:34:54;3.50;;;1.35;;
31348;SDS011;17976;48.480;11.946;2022-08-11T17:37:40;1.80;;;1.23;;
31348;SDS011;17976;48.480;11.946;2022-08-11T17:40:07;6.68;;;1.20;;
31348;SDS011;17976;48.480;11.946;2022-08-11T17:42:34;1.60;;;1.15;;
31348;SDS011;17976;48.480;11.946;2022-08-11T17:45:20;2.13;;;1.40;;
31348;SDS011;17976;48.480;11.946;2022-08-11T17:48:06;2.42;;;1.10;;
31348;SDS011;17976;48.480;11.946;2022-08-11T17:50:54;2.60;;;1.25;;
31348;SDS011;17976;48.480;11.946;2022-08-11T17:53:20;3.83;;;1.27;;
31348;SDS011;17976;48.480;11.946;2022-08-11T17:56:06;6.43;;;3.47;;
31348;SDS011;17976;48.480;11.946;2022-08-11T17:58:59;5.53;;;1.55;;
31348;SDS011;17976;48.480;11.946;2022-08-11T18:01:45;1.80;;;1.30;;
31348;SDS011;17976;48.480;11.946;2022-08-11T18:04:12;2.78;;;1.30;;
31348;SDS011;17976;48.480;11.946;2022-08-11T18:06:39;5.22;;;1.02;;
31348;SDS011;17976;48.480;11.946;2022-08-11T18:09:15;1.80;;;1.10;;
31348;SDS011;17976;48.480;11.946;2022-08-11T18:12:02;6.28;;;1.30;;
31348;SDS011;17976;48.480;11.946;2022-08-11T18:14:47;1.23;;;1.08;;
31348;SDS011;17976;48.480;11.946;2022-08-11T18:17:33;2.55;;;1.40;;
31348;SDS011;17976;48.480;11.946;2022-08-11T18:20:17;2.08;;;1.42;;
31348;SDS011;17976;48.480;11.946;2022-08-11T18:23:04;5.78;;;1.40;;
31348;SDS011;17976;48.480;11.946;2022-08-11T18:25:50;1.58;;;1.20;;
31348;SDS011;17976;48.480;11.946;2022-08-11T18:28:37;1.92;;;1.33;;
31348;SDS011;17976;48.480;11.946;2022-08-11T18:31:23;3.80;;;1.55;;
31348;SDS011;17976;48.480;11.946;2022-08-11T18:34:09;1.55;;;1.17;;
31348;SDS011;17976;48.480;11.946;2022-08-11T18:37:05;2.30;;;1.50;;
31348;SDS011;17976;48.480;11.946;2022-08-11T18:40:01;2.25;;;1.20;;
31348;SDS011;17976;48.480;11.946;2022-08-11T18:42:47;2.58;;;1.40;;
31348;SDS011;17976;48.480;11.946;2022-08-11T18:45:33;2.75;;;1.33;;
31348;SDS011;17976;48.480;11.946;2022-08-11T18:48:19;1.55;;;1.00;;
31348;SDS011;17976;48.480;11.946;2022-08-11T18:51:05;4.82;;;1.30;;
31348;SDS011;17976;48.480;11.946;2022-08-11T18:53:52;2.20;;;1.08;;
31348;SDS011;17976;48.480;11.946;2022-08-11T18:56:39;2.47;;;1.30;;
31348;SDS011;17976;48.480;11.946;2022-08-11T18:59:25;1.27;;;1.02;;
31348;SDS011;17976;48.480;11.946;2022-08-11T19:02:11;3.30;;;1.30;;
31348;SDS011;17976;48.480;11.946;2022-08-11T19:04:57;2.75;;;1.20;;
31348;SDS011;17976;48.480;11.946;2022-08-11T19:07:42;1.73;;;1.40;;
31348;SDS011;17976;48.480;11.946;2022-08-11T19:10:29;2.72;;;1.50;;
31348;SDS011;17976;48.480;11.946;2022-08-11T19:13:14;2.88;;;1.30;;
31348;SDS011;17976;48.480;11.946;2022-08-11T19:16:00;3.80;;;1.40;;
31348;SDS011;17976;48.480;11.946;2022-08-11T19:18:47;1.77;;;1.08;;
31348;SDS011;17976;48.480;11.946;2022-08-11T19:21:33;3.58;;;1.45;;
31348;SDS011;17976;48.480;11.946;2022-08-11T19:24:18;1.30;;;1.05;;
31348;SDS011;17976;48.480;11.946;2022-08-11T19:27:03;6.60;;;1.52;;
31348;SDS011;17976;48.480;11.946;2022-08-11T19:29:48;2.17;;;1.42;;
31348;SDS011;17976;48.480;11.946;2022-08-11T19:32:33;5.53;;;1.50;;
31348;SDS011;17976;48.480;11.946;2022-08-11T19:35:19;2.13;;;1.40;;
31348;SDS011;17976;48.480;11.946;2022-08-11T19:38:03;2.25;;;1.27;;
31348;SDS011;17976;48.480;11.946;2022-08-11T19:40:49;2.95;;;1.08;;
31348;SDS011;17976;48.480;11.946;2022-08-11T19:43:33;5.13;;;1.45;;
31348;SDS011;17976;48.480;11.946;2022-08-11T19:46:20;4.43;;;1.60;;
31348;SDS011;17976;48.480;11.946;2022-08-11T19:49:06;5.43;;;1.60;;
31348;SDS011;17976;48.480;11.946;2022-08-11T19:51:52;2.50;;;1.48;;
31348;SDS011;17976;48.480;11.946;2022-08-11T19:54:37;10.90;;;1.60;;
31348;SDS011;17976;48.480;11.946;2022-08-11T19:57:24;4.00;;;1.90;;
